sensor_id;sensor_type;location;lat;lon;timestamp;temperature;humidity
1337;DHT22;662;48.814;9.318;2022-09-09T00:00:26;17.90;62.00
1337;DHT22;662;48.814;9.318;2022-09-09T00:03:19;17.90;62.20
1337;DHT22;662;48.814;9.318;2022-09-09T00:08:23;17.80;62.30
1337;DHT22;662;48.814;9.318;2022-09-09T00:11:00;17.80;62.50
1337;DHT22;662;48.814;9.318;2022-09-09T00:16:15;17.80;62.50
1337;DHT22;662;48.814;9.318;2022-09-09T00:21:37;17.70;62.40
1337;DHT22;662;48.814;9.318;2022-09-09T00:24:29;17.70;62.50
1337;DHT22;662;48.814;9.318;2022-09-09T00:32:36;17.60;62.90
1337;DHT22;662;48.814;9.318;2022-09-09T00:37:38;17.60;63.20
1337;DHT22;662;48.814;9.318;2022-09-09T00:40:16;17.60;63.30
1337;DHT22;662;48.814;9.318;2022-09-09T00:42:44;17.60;63.30
1337;DHT22;662;48.814;9.318;2022-09-09T00:47:52;17.60;63.50
1337;DHT22;662;48.814;9.318;2022-09-09T00:58:11;17.50;63.90
1337;DHT22;662;48.814;9.318;2022-09-09T01:00:44;17.50;64.00
1337;DHT22;662;48.814;9.318;2022-09-09T01:03:25;17.50;64.00
1337;DHT22;662;48.814;9.318;2022-09-09T01:06:03;17.50;64.00
1337;DHT22;662;48.814;9.318;2022-09-09T01:11:01;17.50;64.20
1337;DHT22;662;48.814;9.318;2022-09-09T01:13:32;17.50;64.20
1337;DHT22;662;48.814;9.318;2022-09-09T01:16:01;17.60;64.30
1337;DHT22;662;48.814;9.318;2022-09-09T01:18:39;17.50;64.10
1337;DHT22;662;48.814;9.318;2022-09-09T01:26:35;17.50;64.20
1337;DHT22;662;48.814;9.318;2022-09-09T01:29:11;17.50;64.20
1337;DHT22;662;48.814;9.318;2022-09-09T01:31:55;17.50;64.30
1337;DHT22;662;48.814;9.318;2022-09-09T01:34:23;17.50;64.40
1337;DHT22;662;48.814;9.318;2022-09-09T01:37:00;17.50;64.30
1337;DHT22;662;48.814;9.318;2022-09-09T01:39:27;17.50;64.20
1337;DHT22;662;48.814;9.318;2022-09-09T01:41:54;17.60;64.10
1337;DHT22;662;48.814;9.318;2022-09-09T01:44:21;17.50;63.90
1337;DHT22;662;48.814;9.318;2022-09-09T01:46:47;17.50;63.80
1337;DHT22;662;48.814;9.318;2022-09-09T01:49:13;17.60;63.70
1337;DHT22;662;48.814;9.318;2022-09-09T01:51:40;17.60;63.60
1337;DHT22;662;48.814;9.318;2022-09-09T01:54:07;17.60;63.60
1337;DHT22;662;48.814;9.318;2022-09-09T02:05:04;17.70;63.10
1337;DHT22;662;48.814;9.318;2022-09-09T02:10:24;17.70;62.80
1337;DHT22;662;48.814;9.318;2022-09-09T02:13:12;17.70;62.70
1337;DHT22;662;48.814;9.318;2022-09-09T02:18:22;17.70;62.90
1337;DHT22;662;48.814;9.318;2022-09-09T02:20:50;17.60;62.90
1337;DHT22;662;48.814;9.318;2022-09-09T02:23:17;17.60;62.90
1337;DHT22;662;48.814;9.318;2022-09-09T02:25:44;17.60;63.10
1337;DHT22;662;48.814;9.318;2022-09-09T02:28:14;17.60;63.10
1337;DHT22;662;48.814;9.318;2022-09-09T02:30:41;17.60;63.10
1337;DHT22;662;48.814;9.318;2022-09-09T02:33:10;17.60;63.10
1337;DHT22;662;48.814;9.318;2022-09-09T02:35:39;17.50;63.00
1337;DHT22;662;48.814;9.318;2022-09-09T02:38:11;17.50;63.00
1337;DHT22;662;48.814;9.318;2022-09-09T02:40:37;17.50;63.00
1337;DHT22;662;48.814;9.318;2022-09-09T02:43:03;17.50;63.00
1337;DHT22;662;48.814;9.318;2022-09-09T02:45:41;17.50;63.10
1337;DHT22;662;48.814;9.318;2022-09-09T02:48:46;17.40;63.00
1337;DHT22;662;48.814;9.318;2022-09-09T02:51:39;17.40;62.90
1337;DHT22;662;48.814;9.318;2022-09-09T02:54:17;17.40;63.00
1337;DHT22;662;48.814;9.318;2022-09-09T02:56:51;17.40;63.10
1337;DHT22;662;48.814;9.318;2022-09-09T02:59:19;17.40;63.20
1337;DHT22;662;48.814;9.318;2022-09-09T03:01:45;17.40;63.40
1337;DHT22;662;48.814;9.318;2022-09-09T03:04:11;17.30;63.30
1337;DHT22;662;48.814;9.318;2022-09-09T03:06:36;17.30;63.50
1337;DHT22;662;48.814;9.318;2022-09-09T03:09:02;17.30;63.50
1337;DHT22;662;48.814;9.318;2022-09-09T03:11:28;17.20;63.50
1337;DHT22;662;48.814;9.318;2022-09-09T03:13:54;17.20;63.70
1337;DHT22;662;48.814;9.318;2022-09-09T03:16:22;17.20;63.80
1337;DHT22;662;48.814;9.318;2022-09-09T03:18:48;17.20;63.70
1337;DHT22;662;48.814;9.318;2022-09-09T03:21:13;17.20;63.90
1337;DHT22;662;48.814;9.318;2022-09-09T03:23:39;17.10;64.00
1337;DHT22;662;48.814;9.318;2022-09-09T03:26:05;17.00;64.10
1337;DHT22;662;48.814;9.318;2022-09-09T03:28:31;17.00;65.10
1337;DHT22;662;48.814;9.318;2022-09-09T03:31:00;17.00;64.40
1337;DHT22;662;48.814;9.318;2022-09-09T03:33:26;17.00;64.40
1337;DHT22;662;48.814;9.318;2022-09-09T03:35:52;17.00;64.30
1337;DHT22;662;48.814;9.318;2022-09-09T03:38:18;17.00;64.10
1337;DHT22;662;48.814;9.318;2022-09-09T03:40:51;17.00;64.00
1337;DHT22;662;48.814;9.318;2022-09-09T03:43:21;17.00;64.00
1337;DHT22;662;48.814;9.318;2022-09-09T03:45:47;17.00;64.00
1337;DHT22;662;48.814;9.318;2022-09-09T03:48:13;17.00;63.90
1337;DHT22;662;48.814;9.318;2022-09-09T03:50:47;17.00;63.90
1337;DHT22;662;48.814;9.318;2022-09-09T03:53:14;17.00;64.60
1337;DHT22;662;48.814;9.318;2022-09-09T03:55:47;16.90;63.80
1337;DHT22;662;48.814;9.318;2022-09-09T03:58:14;17.00;63.90
1337;DHT22;662;48.814;9.318;2022-09-09T04:00:40;17.00;64.00
1337;DHT22;662;48.814;9.318;2022-09-09T04:03:11;17.00;64.10
1337;DHT22;662;48.814;9.318;2022-09-09T04:05:39;17.00;64.20
1337;DHT22;662;48.814;9.318;2022-09-09T04:08:08;17.00;64.20
1337;DHT22;662;48.814;9.318;2022-09-09T04:10:34;17.00;64.20
1337;DHT22;662;48.814;9.318;2022-09-09T04:13:03;17.00;64.40
1337;DHT22;662;48.814;9.318;2022-09-09T04:15:29;17.00;64.40
1337;DHT22;662;48.814;9.318;2022-09-09T04:17:55;16.90;64.50
1337;DHT22;662;48.814;9.318;2022-09-09T04:20:21;16.90;64.70
1337;DHT22;662;48.814;9.318;2022-09-09T04:22:48;17.00;65.00
1337;DHT22;662;48.814;9.318;2022-09-09T04:25:13;17.00;65.20
1337;DHT22;662;48.814;9.318;2022-09-09T04:27:39;17.00;65.10
1337;DHT22;662;48.814;9.318;2022-09-09T04:30:06;17.00;65.20
1337;DHT22;662;48.814;9.318;2022-09-09T04:32:35;17.00;65.10
1337;DHT22;662;48.814;9.318;2022-09-09T04:35:02;17.00;65.00
1337;DHT22;662;48.814;9.318;2022-09-09T04:37:28;17.00;65.10
1337;DHT22;662;48.814;9.318;2022-09-09T04:39:54;17.00;65.00
1337;DHT22;662;48.814;9.318;2022-09-09T04:42:19;17.10;65.00
1337;DHT22;662;48.814;9.318;2022-09-09T04:44:45;17.10;65.00
1337;DHT22;662;48.814;9.318;2022-09-09T04:47:11;17.10;64.90
1337;DHT22;662;48.814;9.318;2022-09-09T04:49:37;17.20;64.80
1337;DHT22;662;48.814;9.318;2022-09-09T04:52:04;17.20;64.70
1337;DHT22;662;48.814;9.318;2022-09-09T04:54:30;17.20;64.40
1337;DHT22;662;48.814;9.318;2022-09-09T04:56:55;17.30;64.40
1337;DHT22;662;48.814;9.318;2022-09-09T04:59:21;17.30;64.20
1337;DHT22;662;48.814;9.318;2022-09-09T05:01:47;17.30;63.90
1337;DHT22;662;48.814;9.318;2022-09-09T05:04:13;17.30;63.70
1337;DHT22;662;48.814;9.318;2022-09-09T05:06:41;17.30;63.60
1337;DHT22;662;48.814;9.318;2022-09-09T05:09:08;17.30;63.70
1337;DHT22;662;48.814;9.318;2022-09-09T05:11:34;17.40;63.80
1337;DHT22;662;48.814;9.318;2022-09-09T05:14:03;17.40;63.70
1337;DHT22;662;48.814;9.318;2022-09-09T05:16:29;17.40;63.60
1337;DHT22;662;48.814;9.318;2022-09-09T05:18:56;17.40;63.40
1337;DHT22;662;48.814;9.318;2022-09-09T05:21:23;17.40;63.40
1337;DHT22;662;48.814;9.318;2022-09-09T05:23:50;17.40;63.80
1337;DHT22;662;48.814;9.318;2022-09-09T05:26:21;17.40;63.30
1337;DHT22;662;48.814;9.318;2022-09-09T05:28:47;17.40;63.30
1337;DHT22;662;48.814;9.318;2022-09-09T05:31:14;17.50;63.40
1337;DHT22;662;48.814;9.318;2022-09-09T05:33:41;17.50;63.30
1337;DHT22;662;48.814;9.318;2022-09-09T05:36:10;17.50;63.20
1337;DHT22;662;48.814;9.318;2022-09-09T05:38:38;17.50;63.10
1337;DHT22;662;48.814;9.318;2022-09-09T05:41:04;17.50;63.20
1337;DHT22;662;48.814;9.318;2022-09-09T05:43:30;17.60;63.20
1337;DHT22;662;48.814;9.318;2022-09-09T05:46:11;17.60;63.30
1337;DHT22;662;48.814;9.318;2022-09-09T05:48:39;17.70;63.30
1337;DHT22;662;48.814;9.318;2022-09-09T05:51:07;17.70;63.30
1337;DHT22;662;48.814;9.318;2022-09-09T05:53:33;17.70;63.10
1337;DHT22;662;48.814;9.318;2022-09-09T05:56:10;17.80;63.10
1337;DHT22;662;48.814;9.318;2022-09-09T05:58:37;17.80;62.50
1337;DHT22;662;48.814;9.318;2022-09-09T06:01:05;17.90;62.40
1337;DHT22;662;48.814;9.318;2022-09-09T06:03:33;17.90;62.40
1337;DHT22;662;48.814;9.318;2022-09-09T06:06:00;17.90;62.40
1337;DHT22;662;48.814;9.318;2022-09-09T06:08:27;17.90;62.80
1337;DHT22;662;48.814;9.318;2022-09-09T06:10:52;18.00;62.90
1337;DHT22;662;48.814;9.318;2022-09-09T06:13:18;18.00;63.00
1337;DHT22;662;48.814;9.318;2022-09-09T06:15:53;18.10;63.10
1337;DHT22;662;48.814;9.318;2022-09-09T06:18:19;18.10;63.70
1337;DHT22;662;48.814;9.318;2022-09-09T06:20:58;18.20;63.10
1337;DHT22;662;48.814;9.318;2022-09-09T06:23:24;18.20;63.10
1337;DHT22;662;48.814;9.318;2022-09-09T06:25:51;18.30;63.30
1337;DHT22;662;48.814;9.318;2022-09-09T06:28:17;18.30;63.10
1337;DHT22;662;48.814;9.318;2022-09-09T06:30:43;18.40;63.20
1337;DHT22;662;48.814;9.318;2022-09-09T06:33:10;18.50;63.10
1337;DHT22;662;48.814;9.318;2022-09-09T06:35:35;18.50;63.10
1337;DHT22;662;48.814;9.318;2022-09-09T06:38:01;18.60;63.00
1337;DHT22;662;48.814;9.318;2022-09-09T06:40:27;18.60;62.80
1337;DHT22;662;48.814;9.318;2022-09-09T06:42:52;18.70;62.40
1337;DHT22;662;48.814;9.318;2022-09-09T06:45:18;18.80;62.20
1337;DHT22;662;48.814;9.318;2022-09-09T06:47:45;18.80;62.20
1337;DHT22;662;48.814;9.318;2022-09-09T06:50:10;18.90;62.40
1337;DHT22;662;48.814;9.318;2022-09-09T06:52:36;19.00;62.50
1337;DHT22;662;48.814;9.318;2022-09-09T06:55:02;19.00;62.50
1337;DHT22;662;48.814;9.318;2022-09-09T06:57:28;19.00;62.40
1337;DHT22;662;48.814;9.318;2022-09-09T06:59:54;19.10;62.50
1337;DHT22;662;48.814;9.318;2022-09-09T07:02:19;19.10;61.90
1337;DHT22;662;48.814;9.318;2022-09-09T07:04:45;19.10;61.50
1337;DHT22;662;48.814;9.318;2022-09-09T07:07:11;19.20;61.20
1337;DHT22;662;48.814;9.318;2022-09-09T07:09:38;19.20;60.80
1337;DHT22;662;48.814;9.318;2022-09-09T07:12:05;19.30;60.50
1337;DHT22;662;48.814;9.318;2022-09-09T07:14:31;19.40;60.20
1337;DHT22;662;48.814;9.318;2022-09-09T07:16:58;19.40;59.80
1337;DHT22;662;48.814;9.318;2022-09-09T07:19:23;19.50;59.50
1337;DHT22;662;48.814;9.318;2022-09-09T07:21:49;19.50;59.40
1337;DHT22;662;48.814;9.318;2022-09-09T07:24:15;19.60;59.20
1337;DHT22;662;48.814;9.318;2022-09-09T07:26:41;19.70;59.00
1337;DHT22;662;48.814;9.318;2022-09-09T07:29:08;19.80;58.90
1337;DHT22;662;48.814;9.318;2022-09-09T07:31:36;19.90;58.80
1337;DHT22;662;48.814;9.318;2022-09-09T07:34:03;20.00;58.80
1337;DHT22;662;48.814;9.318;2022-09-09T07:36:34;20.10;58.40
1337;DHT22;662;48.814;9.318;2022-09-09T07:39:02;20.20;58.20
1337;DHT22;662;48.814;9.318;2022-09-09T07:41:43;20.20;58.00
1337;DHT22;662;48.814;9.318;2022-09-09T07:44:11;20.30;58.00
1337;DHT22;662;48.814;9.318;2022-09-09T07:46:38;20.40;58.00
1337;DHT22;662;48.814;9.318;2022-09-09T07:49:07;20.40;57.90
1337;DHT22;662;48.814;9.318;2022-09-09T07:51:39;20.50;57.80
1337;DHT22;662;48.814;9.318;2022-09-09T07:54:08;20.50;57.60
1337;DHT22;662;48.814;9.318;2022-09-09T07:56:35;20.70;57.80
1337;DHT22;662;48.814;9.318;2022-09-09T07:59:03;20.80;57.90
1337;DHT22;662;48.814;9.318;2022-09-09T08:01:34;20.90;57.60
1337;DHT22;662;48.814;9.318;2022-09-09T08:04:07;21.00;57.30
1337;DHT22;662;48.814;9.318;2022-09-09T08:06:38;21.10;56.90
1337;DHT22;662;48.814;9.318;2022-09-09T08:09:05;21.10;56.50
1337;DHT22;662;48.814;9.318;2022-09-09T08:11:31;21.10;56.20
1337;DHT22;662;48.814;9.318;2022-09-09T08:13:58;21.00;56.10
1337;DHT22;662;48.814;9.318;2022-09-09T08:16:30;21.00;56.10
1337;DHT22;662;48.814;9.318;2022-09-09T08:18:57;21.00;56.10
1337;DHT22;662;48.814;9.318;2022-09-09T08:21:27;21.10;56.40
1337;DHT22;662;48.814;9.318;2022-09-09T08:23:55;21.10;56.30
1337;DHT22;662;48.814;9.318;2022-09-09T08:26:23;21.10;56.40
1337;DHT22;662;48.814;9.318;2022-09-09T08:28:50;21.10;56.00
1337;DHT22;662;48.814;9.318;2022-09-09T08:31:19;21.10;55.90
1337;DHT22;662;48.814;9.318;2022-09-09T08:33:45;21.10;56.10
1337;DHT22;662;48.814;9.318;2022-09-09T08:36:15;21.20;56.60
1337;DHT22;662;48.814;9.318;2022-09-09T08:38:43;21.20;56.60
1337;DHT22;662;48.814;9.318;2022-09-09T08:43:50;21.30;56.30
1337;DHT22;662;48.814;9.318;2022-09-09T08:46:53;21.40;56.00
1337;DHT22;662;48.814;9.318;2022-09-09T08:52:19;21.50;56.20
1337;DHT22;662;48.814;9.318;2022-09-09T08:54:47;21.70;55.90
1337;DHT22;662;48.814;9.318;2022-09-09T08:57:21;21.90;55.10
1337;DHT22;662;48.814;9.318;2022-09-09T08:59:50;22.20;54.60
1337;DHT22;662;48.814;9.318;2022-09-09T09:02:38;22.70;53.90
1337;DHT22;662;48.814;9.318;2022-09-09T09:07:52;26.00;49.60
1337;DHT22;662;48.814;9.318;2022-09-09T09:12:47;27.40;44.80
1337;DHT22;662;48.814;9.318;2022-09-09T09:15:19;27.60;43.40
1337;DHT22;662;48.814;9.318;2022-09-09T09:17:46;28.00;41.90
1337;DHT22;662;48.814;9.318;2022-09-09T09:20:15;28.90;40.90
1337;DHT22;662;48.814;9.318;2022-09-09T09:22:52;29.70;39.00
1337;DHT22;662;48.814;9.318;2022-09-09T09:25:27;30.20;37.40
1337;DHT22;662;48.814;9.318;2022-09-09T09:28:18;30.10;36.60
1337;DHT22;662;48.814;9.318;2022-09-09T09:34:00;28.80;37.50
1337;DHT22;662;48.814;9.318;2022-09-09T09:36:24;27.90;37.90
1337;DHT22;662;48.814;9.318;2022-09-09T09:38:58;27.00;38.90
1337;DHT22;662;48.814;9.318;2022-09-09T09:41:37;26.40;40.10
1337;DHT22;662;48.814;9.318;2022-09-09T09:44:05;25.80;41.60
1337;DHT22;662;48.814;9.318;2022-09-09T09:46:31;25.20;42.00
1337;DHT22;662;48.814;9.318;2022-09-09T09:49:02;24.70;41.10
1337;DHT22;662;48.814;9.318;2022-09-09T09:51:30;24.10;40.90
1337;DHT22;662;48.814;9.318;2022-09-09T09:54:27;23.70;42.70
1337;DHT22;662;48.814;9.318;2022-09-09T09:56:53;24.60;44.10
1337;DHT22;662;48.814;9.318;2022-09-09T10:01:53;26.70;37.90
1337;DHT22;662;48.814;9.318;2022-09-09T10:04:21;27.50;36.50
1337;DHT22;662;48.814;9.318;2022-09-09T10:06:49;28.50;35.10
1337;DHT22;662;48.814;9.318;2022-09-09T10:09:29;29.00;34.20
1337;DHT22;662;48.814;9.318;2022-09-09T10:15:00;30.20;34.50
1337;DHT22;662;48.814;9.318;2022-09-09T10:35:04;27.60;38.20
1337;DHT22;662;48.814;9.318;2022-09-09T10:40:39;26.90;39.60
1337;DHT22;662;48.814;9.318;2022-09-09T10:56:42;25.50;42.40
1337;DHT22;662;48.814;9.318;2022-09-09T10:59:18;25.20;42.40
1337;DHT22;662;48.814;9.318;2022-09-09T11:01:47;25.30;42.80
1337;DHT22;662;48.814;9.318;2022-09-09T11:04:24;25.70;42.40
1337;DHT22;662;48.814;9.318;2022-09-09T11:06:54;26.30;41.80
1337;DHT22;662;48.814;9.318;2022-09-09T11:09:33;26.60;41.30
1337;DHT22;662;48.814;9.318;2022-09-09T11:12:02;26.70;41.40
1337;DHT22;662;48.814;9.318;2022-09-09T11:14:41;26.70;40.80
1337;DHT22;662;48.814;9.318;2022-09-09T11:17:22;26.60;40.90
1337;DHT22;662;48.814;9.318;2022-09-09T11:19:48;26.50;40.90
1337;DHT22;662;48.814;9.318;2022-09-09T11:22:33;26.40;41.30
1337;DHT22;662;48.814;9.318;2022-09-09T11:25:26;26.50;41.80
1337;DHT22;662;48.814;9.318;2022-09-09T11:28:28;26.50;41.50
1337;DHT22;662;48.814;9.318;2022-09-09T11:33:51;26.60;41.50
1337;DHT22;662;48.814;9.318;2022-09-09T11:44:40;25.30;40.50
1337;DHT22;662;48.814;9.318;2022-09-09T11:47:25;25.00;41.30
1337;DHT22;662;48.814;9.318;2022-09-09T11:49:55;24.60;41.80
1337;DHT22;662;48.814;9.318;2022-09-09T11:52:46;24.30;42.70
1337;DHT22;662;48.814;9.318;2022-09-09T11:55:33;24.10;44.00
1337;DHT22;662;48.814;9.318;2022-09-09T11:58:02;23.90;44.50
1337;DHT22;662;48.814;9.318;2022-09-09T12:00:48;23.80;44.60
1337;DHT22;662;48.814;9.318;2022-09-09T12:06:26;23.70;44.20
1337;DHT22;662;48.814;9.318;2022-09-09T12:08:57;23.60;43.70
1337;DHT22;662;48.814;9.318;2022-09-09T12:11:28;23.60;43.00
1337;DHT22;662;48.814;9.318;2022-09-09T12:13:56;23.60;43.30
1337;DHT22;662;48.814;9.318;2022-09-09T12:16:35;23.60;43.50
1337;DHT22;662;48.814;9.318;2022-09-09T12:19:22;23.70;43.90
1337;DHT22;662;48.814;9.318;2022-09-09T12:22:01;23.90;43.40
1337;DHT22;662;48.814;9.318;2022-09-09T12:24:46;24.10;42.70
1337;DHT22;662;48.814;9.318;2022-09-09T12:27:20;24.30;42.40
1337;DHT22;662;48.814;9.318;2022-09-09T12:30:09;24.30;42.10
1337;DHT22;662;48.814;9.318;2022-09-09T12:32:36;24.30;41.50
1337;DHT22;662;48.814;9.318;2022-09-09T12:35:12;24.30;41.40
1337;DHT22;662;48.814;9.318;2022-09-09T12:42:44;25.10;40.10
1337;DHT22;662;48.814;9.318;2022-09-09T12:47:55;25.30;39.70
1337;DHT22;662;48.814;9.318;2022-09-09T12:50:24;25.40;39.20
1337;DHT22;662;48.814;9.318;2022-09-09T12:52:53;26.10;39.20
1337;DHT22;662;48.814;9.318;2022-09-09T12:55:28;26.90;38.20
1337;DHT22;662;48.814;9.318;2022-09-09T12:57:56;27.10;37.20
1337;DHT22;662;48.814;9.318;2022-09-09T13:00:24;27.10;37.20
1337;DHT22;662;48.814;9.318;2022-09-09T13:02:55;27.10;37.30
1337;DHT22;662;48.814;9.318;2022-09-09T13:07:50;26.70;35.00
1337;DHT22;662;48.814;9.318;2022-09-09T13:10:26;26.50;35.90
1337;DHT22;662;48.814;9.318;2022-09-09T13:12:56;26.30;36.80
1337;DHT22;662;48.814;9.318;2022-09-09T13:15:26;26.20;37.20
1337;DHT22;662;48.814;9.318;2022-09-09T13:17:58;26.20;37.40
1337;DHT22;662;48.814;9.318;2022-09-09T13:20:26;26.30;37.20
1337;DHT22;662;48.814;9.318;2022-09-09T13:22:54;26.20;37.30
1337;DHT22;662;48.814;9.318;2022-09-09T13:25:26;25.90;37.50
1337;DHT22;662;48.814;9.318;2022-09-09T13:27:53;25.60;37.70
1337;DHT22;662;48.814;9.318;2022-09-09T13:30:33;25.40;38.00
1337;DHT22;662;48.814;9.318;2022-09-09T13:35:36;24.90;38.60
1337;DHT22;662;48.814;9.318;2022-09-09T13:38:14;24.70;38.90
1337;DHT22;662;48.814;9.318;2022-09-09T13:40:40;24.60;39.20
1337;DHT22;662;48.814;9.318;2022-09-09T13:43:20;24.50;39.50
1337;DHT22;662;48.814;9.318;2022-09-09T13:46:00;24.60;39.90
1337;DHT22;662;48.814;9.318;2022-09-09T13:48:27;24.70;39.30
1337;DHT22;662;48.814;9.318;2022-09-09T13:50:58;25.20;39.20
1337;DHT22;662;48.814;9.318;2022-09-09T13:53:24;26.10;38.70
1337;DHT22;662;48.814;9.318;2022-09-09T13:55:50;27.00;37.30
1337;DHT22;662;48.814;9.318;2022-09-09T13:58:17;27.60;36.30
1337;DHT22;662;48.814;9.318;2022-09-09T14:00:45;27.80;35.80
1337;DHT22;662;48.814;9.318;2022-09-09T14:03:11;27.60;35.90
1337;DHT22;662;48.814;9.318;2022-09-09T14:05:37;27.30;35.10
1337;DHT22;662;48.814;9.318;2022-09-09T14:08:04;27.00;35.20
1337;DHT22;662;48.814;9.318;2022-09-09T14:10:33;26.70;35.50
1337;DHT22;662;48.814;9.318;2022-09-09T14:13:02;26.50;35.70
1337;DHT22;662;48.814;9.318;2022-09-09T14:15:28;26.40;35.80
1337;DHT22;662;48.814;9.318;2022-09-09T14:17:54;26.30;36.20
1337;DHT22;662;48.814;9.318;2022-09-09T14:20:20;26.30;36.40
1337;DHT22;662;48.814;9.318;2022-09-09T14:22:46;26.20;36.80
1337;DHT22;662;48.814;9.318;2022-09-09T14:25:12;26.50;36.60
1337;DHT22;662;48.814;9.318;2022-09-09T14:27:41;27.00;36.00
1337;DHT22;662;48.814;9.318;2022-09-09T14:30:08;27.20;35.60
1337;DHT22;662;48.814;9.318;2022-09-09T14:32:33;27.40;35.30
1337;DHT22;662;48.814;9.318;2022-09-09T14:34:59;27.40;35.20
1337;DHT22;662;48.814;9.318;2022-09-09T14:37:25;27.20;35.20
1337;DHT22;662;48.814;9.318;2022-09-09T14:39:52;26.90;35.10
1337;DHT22;662;48.814;9.318;2022-09-09T14:42:22;26.70;35.70
1337;DHT22;662;48.814;9.318;2022-09-09T14:44:48;26.50;36.10
1337;DHT22;662;48.814;9.318;2022-09-09T14:47:14;26.20;36.20
1337;DHT22;662;48.814;9.318;2022-09-09T14:49:42;26.00;36.40
1337;DHT22;662;48.814;9.318;2022-09-09T14:52:08;25.80;37.00
1337;DHT22;662;48.814;9.318;2022-09-09T14:54:34;25.70;37.20
1337;DHT22;662;48.814;9.318;2022-09-09T14:57:00;25.50;37.20
1337;DHT22;662;48.814;9.318;2022-09-09T14:59:25;25.30;37.30
1337;DHT22;662;48.814;9.318;2022-09-09T15:01:52;25.20;37.60
1337;DHT22;662;48.814;9.318;2022-09-09T15:04:18;25.30;38.10
1337;DHT22;662;48.814;9.318;2022-09-09T15:06:44;25.20;37.90
1337;DHT22;662;48.814;9.318;2022-09-09T15:09:14;25.20;37.90
1337;DHT22;662;48.814;9.318;2022-09-09T15:11:40;25.10;37.60
1337;DHT22;662;48.814;9.318;2022-09-09T15:14:07;25.00;37.80
1337;DHT22;662;48.814;9.318;2022-09-09T15:16:33;24.90;38.30
1337;DHT22;662;48.814;9.318;2022-09-09T15:19:00;24.90;37.90
1337;DHT22;662;48.814;9.318;2022-09-09T15:21:29;24.90;37.90
1337;DHT22;662;48.814;9.318;2022-09-09T15:23:56;24.90;38.00
1337;DHT22;662;48.814;9.318;2022-09-09T15:26:23;24.90;38.10
1337;DHT22;662;48.814;9.318;2022-09-09T15:28:49;24.80;38.10
1337;DHT22;662;48.814;9.318;2022-09-09T15:31:23;24.70;38.00
1337;DHT22;662;48.814;9.318;2022-09-09T15:33:54;24.60;37.70
1337;DHT22;662;48.814;9.318;2022-09-09T15:36:47;24.50;37.70
1337;DHT22;662;48.814;9.318;2022-09-09T15:39:15;24.30;38.00
1337;DHT22;662;48.814;9.318;2022-09-09T15:41:42;24.30;38.40
1337;DHT22;662;48.814;9.318;2022-09-09T15:44:08;24.20;38.80
1337;DHT22;662;48.814;9.318;2022-09-09T15:46:40;24.20;38.60
1337;DHT22;662;48.814;9.318;2022-09-09T15:49:21;24.20;38.80
1337;DHT22;662;48.814;9.318;2022-09-09T15:52:06;24.20;38.90
1337;DHT22;662;48.814;9.318;2022-09-09T15:54:34;24.20;39.30
1337;DHT22;662;48.814;9.318;2022-09-09T15:57:03;24.20;39.40
1337;DHT22;662;48.814;9.318;2022-09-09T15:59:32;24.10;39.50
1337;DHT22;662;48.814;9.318;2022-09-09T16:02:02;24.00;39.50
1337;DHT22;662;48.814;9.318;2022-09-09T16:04:29;23.90;40.40
1337;DHT22;662;48.814;9.318;2022-09-09T16:07:05;23.90;39.90
1337;DHT22;662;48.814;9.318;2022-09-09T16:09:32;23.80;40.20
1337;DHT22;662;48.814;9.318;2022-09-09T16:12:00;23.70;40.20
1337;DHT22;662;48.814;9.318;2022-09-09T16:14:31;23.60;40.20
1337;DHT22;662;48.814;9.318;2022-09-09T16:16:59;23.60;40.60
1337;DHT22;662;48.814;9.318;2022-09-09T16:19:26;23.50;40.80
1337;DHT22;662;48.814;9.318;2022-09-09T16:21:51;23.40;40.80
1337;DHT22;662;48.814;9.318;2022-09-09T16:24:19;23.40;40.60
1337;DHT22;662;48.814;9.318;2022-09-09T16:26:50;23.30;40.30
1337;DHT22;662;48.814;9.318;2022-09-09T16:29:17;23.30;40.70
1337;DHT22;662;48.814;9.318;2022-09-09T16:31:45;23.20;40.90
1337;DHT22;662;48.814;9.318;2022-09-09T16:34:11;23.10;40.80
1337;DHT22;662;48.814;9.318;2022-09-09T16:36:38;23.10;40.30
1337;DHT22;662;48.814;9.318;2022-09-09T16:39:06;23.10;40.50
1337;DHT22;662;48.814;9.318;2022-09-09T16:41:34;23.00;40.60
1337;DHT22;662;48.814;9.318;2022-09-09T16:44:05;23.00;40.90
1337;DHT22;662;48.814;9.318;2022-09-09T16:46:38;23.00;41.60
1337;DHT22;662;48.814;9.318;2022-09-09T16:49:07;22.90;41.80
1337;DHT22;662;48.814;9.318;2022-09-09T16:51:38;22.90;41.90
1337;DHT22;662;48.814;9.318;2022-09-09T16:54:06;22.80;41.80
1337;DHT22;662;48.814;9.318;2022-09-09T16:56:34;22.70;41.90
1337;DHT22;662;48.814;9.318;2022-09-09T16:59:08;22.60;42.40
1337;DHT22;662;48.814;9.318;2022-09-09T17:01:36;22.60;42.60
1337;DHT22;662;48.814;9.318;2022-09-09T17:04:04;22.50;43.00
1337;DHT22;662;48.814;9.318;2022-09-09T17:06:32;22.40;43.30
1337;DHT22;662;48.814;9.318;2022-09-09T17:09:07;22.30;43.50
1337;DHT22;662;48.814;9.318;2022-09-09T17:11:33;22.30;43.70
1337;DHT22;662;48.814;9.318;2022-09-09T17:13:59;22.30;43.90
1337;DHT22;662;48.814;9.318;2022-09-09T17:16:28;22.20;43.60
1337;DHT22;662;48.814;9.318;2022-09-09T17:18:55;22.20;43.40
1337;DHT22;662;48.814;9.318;2022-09-09T17:21:24;22.10;43.80
1337;DHT22;662;48.814;9.318;2022-09-09T17:23:51;22.00;43.60
1337;DHT22;662;48.814;9.318;2022-09-09T17:26:20;22.00;43.80
1337;DHT22;662;48.814;9.318;2022-09-09T17:28:47;21.90;44.00
1337;DHT22;662;48.814;9.318;2022-09-09T17:31:15;21.90;44.10
1337;DHT22;662;48.814;9.318;2022-09-09T17:33:42;21.80;44.00
1337;DHT22;662;48.814;9.318;2022-09-09T17:36:25;21.70;44.20
1337;DHT22;662;48.814;9.318;2022-09-09T17:38:51;21.60;44.40
1337;DHT22;662;48.814;9.318;2022-09-09T17:41:29;21.50;44.60
1337;DHT22;662;48.814;9.318;2022-09-09T17:43:55;21.50;45.00
1337;DHT22;662;48.814;9.318;2022-09-09T17:46:24;21.40;45.10
1337;DHT22;662;48.814;9.318;2022-09-09T17:48:52;21.30;45.40
1337;DHT22;662;48.814;9.318;2022-09-09T17:51:22;21.20;45.60
1337;DHT22;662;48.814;9.318;2022-09-09T17:53:54;21.20;46.00
1337;DHT22;662;48.814;9.318;2022-09-09T17:56:21;21.10;46.20
1337;DHT22;662;48.814;9.318;2022-09-09T17:58:49;21.10;46.60
1337;DHT22;662;48.814;9.318;2022-09-09T18:01:20;21.00;46.70
1337;DHT22;662;48.814;9.318;2022-09-09T18:03:48;20.90;47.00
1337;DHT22;662;48.814;9.318;2022-09-09T18:06:20;20.90;47.30
1337;DHT22;662;48.814;9.318;2022-09-09T18:08:51;20.90;47.60
1337;DHT22;662;48.814;9.318;2022-09-09T18:11:19;20.90;47.80
1337;DHT22;662;48.814;9.318;2022-09-09T18:13:53;20.80;48.10
1337;DHT22;662;48.814;9.318;2022-09-09T18:16:20;20.70;48.10
1337;DHT22;662;48.814;9.318;2022-09-09T18:18:48;20.70;48.30
1337;DHT22;662;48.814;9.318;2022-09-09T18:21:15;20.70;48.50
1337;DHT22;662;48.814;9.318;2022-09-09T18:23:42;20.70;48.60
1337;DHT22;662;48.814;9.318;2022-09-09T18:26:12;20.60;48.70
1337;DHT22;662;48.814;9.318;2022-09-09T18:28:39;20.60;48.80
1337;DHT22;662;48.814;9.318;2022-09-09T18:31:16;20.50;48.90
1337;DHT22;662;48.814;9.318;2022-09-09T18:33:44;20.50;49.10
1337;DHT22;662;48.814;9.318;2022-09-09T18:36:13;20.60;49.20
1337;DHT22;662;48.814;9.318;2022-09-09T18:38:39;20.60;49.30
1337;DHT22;662;48.814;9.318;2022-09-09T18:41:16;20.50;49.40
1337;DHT22;662;48.814;9.318;2022-09-09T18:43:43;20.60;49.30